sensor_id;sensor_type;location;lat;lon;timestamp;pressure;altitude;pressure_sealevel;temperature;humidity
28167;BME280;15455;53.376;-6.262;2023-01-08T00:00:29;98191.91;;;6.46;100.00
28167;BME280;15455;53.376;-6.262;2023-01-08T00:03:14;98188.47;;;6.45;100.00
28167;BME280;15455;53.376;-6.262;2023-01-08T00:06:04;98185.94;;;6.43;100.00
28167;BME280;15455;53.376;-6.262;2023-01-08T00:08:50;98199.81;;;6.41;100.00
28167;BME280;15455;53.376;-6.262;2023-01-08T00:11:36;98194.75;;;6.36;100.00
28167;BME280;15455;53.376;-6.262;2023-01-08T00:14:22;98189.66;;;6.33;100.00
28167;BME280;15455;53.376;-6.262;2023-01-08T00:17:07;98196.56;;;6.34;100.00
28167;BME280;15455;53.376;-6.262;2023-01-08T00:19:52;98199.09;;;6.36;100.00
28167;BME280;15455;53.376;-6.262;2023-01-08T00:22:37;98208.66;;;6.34;100.00
28167;BME280;15455;53.376;-6.262;2023-01-08T00:25:23;98194.72;;;6.38;100.00
28167;BME280;15455;53.376;-6.262;2023-01-08T00:28:08;98187.03;;;6.35;100.00
28167;BME280;15455;53.376;-6.262;2023-01-08T00:30:54;98198.16;;;6.38;100.00
28167;BME280;15455;53.376;-6.262;2023-01-08T00:33:40;98212.03;;;6.37;100.00
28167;BME280;15455;53.376;-6.262;2023-01-08T00:36:25;98218.97;;;6.35;100.00
28167;BME280;15455;53.376;-6.262;2023-01-08T00:39:11;98216.28;;;6.40;100.00
28167;BME280;15455;53.376;-6.262;2023-01-08T00:41:56;98223.22;;;6.38;100.00
28167;BME280;15455;53.376;-6.262;2023-01-08T00:44:41;98228.44;;;6.36;100.00
28167;BME280;15455;53.376;-6.262;2023-01-08T00:47:27;98221.56;;;6.35;100.00
28167;BME280;15455;53.376;-6.262;2023-01-08T00:50:12;98222.50;;;6.33;100.00
28167;BME280;15455;53.376;-6.262;2023-01-08T00:52:58;98228.75;;;6.25;100.00
28167;BME280;15455;53.376;-6.262;2023-01-08T00:55:43;98237.31;;;6.28;100.00
28167;BME280;15455;53.376;-6.262;2023-01-08T00:58:29;98223.47;;;6.29;100.00
28167;BME280;15455;53.376;-6.262;2023-01-08T01:01:15;98231.25;;;6.29;100.00
28167;BME280;15455;53.376;-6.262;2023-01-08T01:04:01;98226.88;;;6.31;100.00
28167;BME280;15455;53.376;-6.262;2023-01-08T01:06:46;98229.53;;;6.28;100.00
28167;BME280;15455;53.376;-6.262;2023-01-08T01:09:32;98232.97;;;6.28;100.00
28167;BME280;15455;53.376;-6.262;2023-01-08T01:12:17;98239.91;;;6.28;100.00
28167;BME280;15455;53.376;-6.262;2023-01-08T01:15:06;98245.25;;;6.21;100.00
28167;BME280;15455;53.376;-6.262;2023-01-08T01:17:52;98234.06;;;6.19;100.00
28167;BME280;15455;53.376;-6.262;2023-01-08T01:20:37;98231.53;;;6.16;100.00
28167;BME280;15455;53.376;-6.262;2023-01-08T01:23:23;98234.00;;;6.21;100.00
28167;BME280;15455;53.376;-6.262;2023-01-08T01:26:16;98248.50;;;6.28;100.00
28167;BME280;15455;53.376;-6.262;2023-01-08T01:29:02;98229.53;;;6.28;100.00
28167;BME280;15455;53.376;-6.262;2023-01-08T01:31:47;98249.38;;;6.29;100.00
28167;BME280;15455;53.376;-6.262;2023-01-08T01:34:33;98234.63;;;6.31;100.00
28167;BME280;15455;53.376;-6.262;2023-01-08T01:37:19;98245.91;;;6.28;100.00
28167;BME280;15455;53.376;-6.262;2023-01-08T01:40:05;98234.00;;;6.21;100.00
28167;BME280;15455;53.376;-6.262;2023-01-08T01:42:50;98240.94;;;6.20;100.00
28167;BME280;15455;53.376;-6.262;2023-01-08T01:45:36;98248.88;;;6.14;100.00
28167;BME280;15455;53.376;-6.262;2023-01-08T01:48:21;98255.00;;;6.10;100.00
28167;BME280;15455;53.376;-6.262;2023-01-08T01:51:07;98252.56;;;6.04;100.00
28167;BME280;15455;53.376;-6.262;2023-01-08T01:53:53;98251.81;;;5.99;100.00
28167;BME280;15455;53.376;-6.262;2023-01-08T01:56:38;98252.00;;;5.91;100.00
28167;BME280;15455;53.376;-6.262;2023-01-08T01:59:24;98247.69;;;5.90;100.00
28167;BME280;15455;53.376;-6.262;2023-01-08T02:02:10;98252.91;;;5.88;100.00
28167;BME280;15455;53.376;-6.262;2023-01-08T02:04:56;98265.09;;;5.83;100.00
28167;BME280;15455;53.376;-6.262;2023-01-08T02:07:54;98265.78;;;5.91;100.00
28167;BME280;15455;53.376;-6.262;2023-01-08T02:10:52;98258.81;;;5.95;100.00
28167;BME280;15455;53.376;-6.262;2023-01-08T02:13:41;98259.72;;;5.93;100.00
28167;BME280;15455;53.376;-6.262;2023-01-08T02:17:15;98254.69;;;5.85;100.00
28167;BME280;15455;53.376;-6.262;2023-01-08T02:19:56;98256.53;;;5.81;100.00
28167;BME280;15455;53.376;-6.262;2023-01-08T02:28:40;98262.91;;;5.66;100.00
28167;BME280;15455;53.376;-6.262;2023-01-08T02:31:28;98268.84;;;5.70;100.00
28167;BME280;15455;53.376;-6.262;2023-01-08T02:34:14;98262.78;;;5.72;100.00
28167;BME280;15455;53.376;-6.262;2023-01-08T02:37:00;98247.31;;;5.69;100.00
28167;BME280;15455;53.376;-6.262;2023-01-08T02:40:18;98243.91;;;5.67;100.00
28167;BME280;15455;53.376;-6.262;2023-01-08T02:43:31;98245.72;;;5.64;100.00
28167;BME280;15455;53.376;-6.262;2023-01-08T02:46:25;98230.13;;;5.67;100.00
28167;BME280;15455;53.376;-6.262;2023-01-08T02:49:14;98225.03;;;5.64;100.00
28167;BME280;15455;53.376;-6.262;2023-01-08T02:52:02;98215.69;;;5.56;100.00
28167;BME280;15455;53.376;-6.262;2023-01-08T02:54:50;98215.84;;;5.49;100.00
28167;BME280;15455;53.376;-6.262;2023-01-08T02:57:38;98226.16;;;5.52;100.00
28167;BME280;15455;53.376;-6.262;2023-01-08T03:00:24;98236.56;;;5.49;100.00
28167;BME280;15455;53.376;-6.262;2023-01-08T03:03:21;98229.66;;;5.49;100.00
28167;BME280;15455;53.376;-6.262;2023-01-08T03:06:12;98222.13;;;5.38;100.00
28167;BME280;15455;53.376;-6.262;2023-01-08T03:08:59;98216.19;;;5.35;100.00
28167;BME280;15455;53.376;-6.262;2023-01-08T03:11:56;98224.06;;;5.30;100.00
28167;BME280;15455;53.376;-6.262;2023-01-08T03:14:51;98218.16;;;5.24;100.00
28167;BME280;15455;53.376;-6.262;2023-01-08T03:17:43;98228.63;;;5.17;100.00
28167;BME280;15455;53.376;-6.262;2023-01-08T03:20:32;98214.84;;;5.17;100.00
28167;BME280;15455;53.376;-6.262;2023-01-08T03:23:21;98223.31;;;5.24;100.00
28167;BME280;15455;53.376;-6.262;2023-01-08T03:26:08;98206.16;;;5.19;100.00
28167;BME280;15455;53.376;-6.262;2023-01-08T03:28:55;98216.47;;;5.21;100.00
28167;BME280;15455;53.376;-6.262;2023-01-08T03:31:43;98199.28;;;5.18;100.00
28167;BME280;15455;53.376;-6.262;2023-01-08T03:34:31;98200.88;;;5.24;100.00
28167;BME280;15455;53.376;-6.262;2023-01-08T03:37:22;98207.81;;;5.24;100.00
28167;BME280;15455;53.376;-6.262;2023-01-08T03:40:18;98213.78;;;5.26;100.00
28167;BME280;15455;53.376;-6.262;2023-01-08T03:43:04;98211.94;;;5.32;100.00
28167;BME280;15455;53.376;-6.262;2023-01-08T03:45:53;98207.56;;;5.36;100.00
28167;BME280;15455;53.376;-6.262;2023-01-08T03:48:41;98204.88;;;5.39;100.00
28167;BME280;15455;53.376;-6.262;2023-01-08T03:51:27;98211.69;;;5.42;100.00
28167;BME280;15455;53.376;-6.262;2023-01-08T03:54:20;98210.88;;;5.41;100.00
28167;BME280;15455;53.376;-6.262;2023-01-08T03:57:06;98209.06;;;5.45;100.00
28167;BME280;15455;53.376;-6.262;2023-01-08T03:59:51;98194.59;;;5.37;100.00
28167;BME280;15455;53.376;-6.262;2023-01-08T04:02:36;98204.19;;;5.31;100.00
28167;BME280;15455;53.376;-6.262;2023-01-08T04:05:22;98200.94;;;5.22;100.00
28167;BME280;15455;53.376;-6.262;2023-01-08T04:08:07;98203.44;;;5.27;100.00
28167;BME280;15455;53.376;-6.262;2023-01-08T04:10:53;98186.22;;;5.26;100.00
28167;BME280;15455;53.376;-6.262;2023-01-08T04:13:38;98181.25;;;5.15;100.00
28167;BME280;15455;53.376;-6.262;2023-01-08T04:16:24;98178.72;;;5.14;100.00
28167;BME280;15455;53.376;-6.262;2023-01-08T04:19:10;98187.34;;;5.14;100.00
28167;BME280;15455;53.376;-6.262;2023-01-08T04:21:56;98184.59;;;5.20;100.00
28167;BME280;15455;53.376;-6.262;2023-01-08T04:24:41;98192.25;;;5.25;100.00
28167;BME280;15455;53.376;-6.262;2023-01-08T04:27:27;98176.50;;;5.36;100.00
28167;BME280;15455;53.376;-6.262;2023-01-08T04:30:12;98185.84;;;5.43;100.00
28167;BME280;15455;53.376;-6.262;2023-01-08T04:32:58;98194.41;;;5.45;100.00
28167;BME280;15455;53.376;-6.262;2023-01-08T04:35:44;98193.63;;;5.40;100.00
28167;BME280;15455;53.376;-6.262;2023-01-08T04:38:29;98192.69;;;5.44;100.00
28167;BME280;15455;53.376;-6.262;2023-01-08T04:41:15;98197.13;;;5.39;100.00
28167;BME280;15455;53.376;-6.262;2023-01-08T04:44:02;98187.81;;;5.32;100.00
28167;BME280;15455;53.376;-6.262;2023-01-08T04:46:48;98195.47;;;5.36;100.00
28167;BME280;15455;53.376;-6.262;2023-01-08T04:49:33;98190.41;;;5.32;100.00
28167;BME280;15455;53.376;-6.262;2023-01-08T04:52:18;98192.25;;;5.25;100.00
28167;BME280;15455;53.376;-6.262;2023-01-08T04:55:04;98191.31;;;5.29;100.00
28167;BME280;15455;53.376;-6.262;2023-01-08T04:57:50;98193.91;;;5.29;100.00
28167;BME280;15455;53.376;-6.262;2023-01-08T05:00:35;98182.63;;;5.32;100.00
28167;BME280;15455;53.376;-6.262;2023-01-08T05:03:23;98172.91;;;5.43;100.00
28167;BME280;15455;53.376;-6.262;2023-01-08T05:06:08;98170.19;;;5.48;100.00
28167;BME280;15455;53.376;-6.262;2023-01-08T05:08:54;98161.53;;;5.49;100.00
28167;BME280;15455;53.376;-6.262;2023-01-08T05:11:40;98148.44;;;5.56;100.00
28167;BME280;15455;53.376;-6.262;2023-01-08T05:14:27;98149.22;;;5.59;100.00
28167;BME280;15455;53.376;-6.262;2023-01-08T05:17:12;98134.41;;;5.65;100.00
28167;BME280;15455;53.376;-6.262;2023-01-08T05:19:58;98111.16;;;5.64;100.00
28167;BME280;15455;53.376;-6.262;2023-01-08T05:22:43;98106.88;;;5.63;100.00
28167;BME280;15455;53.376;-6.262;2023-01-08T05:25:29;98114.56;;;5.66;100.00
28167;BME280;15455;53.376;-6.262;2023-01-08T05:28:14;98113.56;;;5.71;100.00
28167;BME280;15455;53.376;-6.262;2023-01-08T05:30:59;98123.72;;;5.79;100.00
28167;BME280;15455;53.376;-6.262;2023-01-08T05:33:45;98141.72;;;5.84;100.00
28167;BME280;15455;53.376;-6.262;2023-01-08T05:36:30;98133.91;;;5.85;100.00
28167;BME280;15455;53.376;-6.262;2023-01-08T05:39:16;98130.53;;;5.82;100.00
28167;BME280;15455;53.376;-6.262;2023-01-08T05:42:02;98133.91;;;5.85;100.00
28167;BME280;15455;53.376;-6.262;2023-01-08T05:44:47;98155.34;;;5.90;100.00
28167;BME280;15455;53.376;-6.262;2023-01-08T05:47:33;98154.28;;;5.99;100.00
28167;BME280;15455;53.376;-6.262;2023-01-08T05:50:19;98153.41;;;6.00;100.00
28167;BME280;15455;53.376;-6.262;2023-01-08T05:53:06;98144.03;;;5.95;100.00
28167;BME280;15455;53.376;-6.262;2023-01-08T05:55:57;98154.47;;;5.91;100.00
28167;BME280;15455;53.376;-6.262;2023-01-08T05:58:42;98151.13;;;5.88;100.00
28167;BME280;15455;53.376;-6.262;2023-01-08T06:01:28;98149.66;;;5.76;100.00
28167;BME280;15455;53.376;-6.262;2023-01-08T06:04:14;98132.63;;;5.67;100.00
28167;BME280;15455;53.376;-6.262;2023-01-08T06:06:59;98132.00;;;5.59;100.00
28167;BME280;15455;53.376;-6.262;2023-01-08T06:09:45;98127.09;;;5.47;100.00
28167;BME280;15455;53.376;-6.262;2023-01-08T06:12:30;98122.19;;;5.36;100.00
28167;BME280;15455;53.376;-6.262;2023-01-08T06:15:16;98120.53;;;5.33;100.00
28167;BME280;15455;53.376;-6.262;2023-01-08T06:18:03;98107.69;;;5.30;100.00
28167;BME280;15455;53.376;-6.262;2023-01-08T06:20:48;98111.94;;;5.31;100.00
28167;BME280;15455;53.376;-6.262;2023-01-08T06:23:34;98106.78;;;5.31;100.00
28167;BME280;15455;53.376;-6.262;2023-01-08T06:26:19;98110.94;;;5.37;100.00
28167;BME280;15455;53.376;-6.262;2023-01-08T06:29:05;98111.00;;;5.35;100.00
28167;BME280;15455;53.376;-6.262;2023-01-08T06:31:50;98107.56;;;5.35;100.00
28167;BME280;15455;53.376;-6.262;2023-01-08T06:34:36;98101.53;;;5.34;100.00
28167;BME280;15455;53.376;-6.262;2023-01-08T06:37:21;98105.09;;;5.30;100.00
28167;BME280;15455;53.376;-6.262;2023-01-08T06:40:07;98087.06;;;5.26;100.00
28167;BME280;15455;53.376;-6.262;2023-01-08T06:42:53;98083.63;;;5.27;100.00
28167;BME280;15455;53.376;-6.262;2023-01-08T06:45:38;98089.66;;;5.26;100.00
28167;BME280;15455;53.376;-6.262;2023-01-08T06:48:24;98094.03;;;5.24;100.00
28167;BME280;15455;53.376;-6.262;2023-01-08T06:51:09;98091.50;;;5.22;100.00
28167;BME280;15455;53.376;-6.262;2023-01-08T06:53:55;98101.03;;;5.18;100.00
28167;BME280;15455;53.376;-6.262;2023-01-08T06:56:40;98093.31;;;5.17;100.00
28167;BME280;15455;53.376;-6.262;2023-01-08T06:59:37;98080.34;;;5.18;100.00
28167;BME280;15455;53.376;-6.262;2023-01-08T07:02:23;98095.09;;;5.15;100.00
28167;BME280;15455;53.376;-6.262;2023-01-08T07:05:09;98104.66;;;5.11;100.00
28167;BME280;15455;53.376;-6.262;2023-01-08T07:07:55;98103.94;;;5.06;100.00
28167;BME280;15455;53.376;-6.262;2023-01-08T07:10:41;98098.03;;;4.99;100.00
28167;BME280;15455;53.376;-6.262;2023-01-08T07:13:28;98104.22;;;4.92;100.00
28167;BME280;15455;53.376;-6.262;2023-01-08T07:16:14;98100.84;;;4.90;100.00
28167;BME280;15455;53.376;-6.262;2023-01-08T07:19:00;98093.16;;;4.87;100.00
28167;BME280;15455;53.376;-6.262;2023-01-08T07:21:45;98091.53;;;4.83;100.00
28167;BME280;15455;53.376;-6.262;2023-01-08T07:24:31;98095.81;;;4.82;100.00
28167;BME280;15455;53.376;-6.262;2023-01-08T07:27:16;98094.09;;;4.83;100.00
28167;BME280;15455;53.376;-6.262;2023-01-08T07:30:02;98095.00;;;4.80;100.00
28167;BME280;15455;53.376;-6.262;2023-01-08T07:32:47;98101.97;;;4.78;100.00
28167;BME280;15455;53.376;-6.262;2023-01-08T07:35:33;98109.75;;;4.75;100.00
28167;BME280;15455;53.376;-6.262;2023-01-08T07:38:20;98102.19;;;4.67;100.00
28167;BME280;15455;53.376;-6.262;2023-01-08T07:41:06;98099.75;;;4.61;100.00
28167;BME280;15455;53.376;-6.262;2023-01-08T07:43:51;98097.31;;;4.54;100.00
28167;BME280;15455;53.376;-6.262;2023-01-08T07:46:37;98097.38;;;4.50;100.00
28167;BME280;15455;53.376;-6.262;2023-01-08T07:49:23;98089.59;;;4.52;100.00
28167;BME280;15455;53.376;-6.262;2023-01-08T07:52:08;98095.75;;;4.46;100.00
28167;BME280;15455;53.376;-6.262;2023-01-08T07:54:54;98083.84;;;4.39;100.00
28167;BME280;15455;53.376;-6.262;2023-01-08T07:57:39;98076.09;;;4.38;100.00
28167;BME280;15455;53.376;-6.262;2023-01-08T08:00:25;98074.50;;;4.33;100.00
28167;BME280;15455;53.376;-6.262;2023-01-08T08:03:10;98070.25;;;4.31;100.00
28167;BME280;15455;53.376;-6.262;2023-01-08T08:05:58;98064.19;;;4.32;100.00
28167;BME280;15455;53.376;-6.262;2023-01-08T08:08:44;98057.25;;;4.34;100.00
28167;BME280;15455;53.376;-6.262;2023-01-08T08:11:29;98053.88;;;4.30;100.00
28167;BME280;15455;53.376;-6.262;2023-01-08T08:14:15;98053.97;;;4.26;100.00
28167;BME280;15455;53.376;-6.262;2023-01-08T08:17:00;98052.31;;;4.23;100.00
28167;BME280;15455;53.376;-6.262;2023-01-08T08:19:46;98055.75;;;4.24;100.00
28167;BME280;15455;53.376;-6.262;2023-01-08T08:22:31;98057.47;;;4.23;100.00
28167;BME280;15455;53.376;-6.262;2023-01-08T08:25:16;98065.25;;;4.22;100.00
28167;BME280;15455;53.376;-6.262;2023-01-08T08:28:02;98062.72;;;4.18;100.00
28167;BME280;15455;53.376;-6.262;2023-01-08T08:30:50;98079.81;;;4.24;100.00
28167;BME280;15455;53.376;-6.262;2023-01-08T08:33:35;98076.28;;;4.30;100.00
28167;BME280;15455;53.376;-6.262;2023-01-08T08:36:27;98076.28;;;4.30;100.00
28167;BME280;15455;53.376;-6.262;2023-01-08T08:39:13;98069.38;;;4.32;100.00
28167;BME280;15455;53.376;-6.262;2023-01-08T08:41:59;98069.38;;;4.32;100.00
28167;BME280;15455;53.376;-6.262;2023-01-08T08:44:44;98059.00;;;4.33;100.00
28167;BME280;15455;53.376;-6.262;2023-01-08T08:47:29;98066.75;;;4.33;100.00
28167;BME280;15455;53.376;-6.262;2023-01-08T08:50:15;98048.72;;;4.30;100.00
28167;BME280;15455;53.376;-6.262;2023-01-08T08:53:03;98047.81;;;4.33;100.00
28167;BME280;15455;53.376;-6.262;2023-01-08T08:55:49;98048.72;;;4.30;100.00
28167;BME280;15455;53.376;-6.262;2023-01-08T08:58:34;98046.22;;;4.26;100.00
28167;BME280;15455;53.376;-6.262;2023-01-08T09:01:20;98050.59;;;4.24;100.00
28167;BME280;15455;53.376;-6.262;2023-01-08T09:04:05;98047.16;;;4.22;100.00
28167;BME280;15455;53.376;-6.262;2023-01-08T09:06:51;98045.50;;;4.21;100.00
28167;BME280;15455;53.376;-6.262;2023-01-08T09:09:36;98054.06;;;4.21;100.00
28167;BME280;15455;53.376;-6.262;2023-01-08T09:12:22;98047.16;;;4.22;100.00
28167;BME280;15455;53.376;-6.262;2023-01-08T09:15:07;98046.34;;;4.21;100.00
28167;BME280;15455;53.376;-6.262;2023-01-08T09:17:54;98046.38;;;4.20;100.00
28167;BME280;15455;53.376;-6.262;2023-01-08T09:20:40;98046.38;;;4.20;100.00
28167;BME280;15455;53.376;-6.262;2023-01-08T09:23:25;98049.81;;;4.18;100.00
28167;BME280;15455;53.376;-6.262;2023-01-08T09:26:11;98041.28;;;4.16;100.00
28167;BME280;15455;53.376;-6.262;2023-01-08T09:28:57;98036.94;;;4.17;100.00
28167;BME280;15455;53.376;-6.262;2023-01-08T09:31:42;98033.66;;;4.10;100.00
28167;BME280;15455;53.376;-6.262;2023-01-08T09:34:28;98041.50;;;4.04;100.00
28167;BME280;15455;53.376;-6.262;2023-01-08T09:37:15;98031.22;;;4.03;100.00
28167;BME280;15455;53.376;-6.262;2023-01-08T09:40:00;98033.78;;;4.03;100.00
28167;BME280;15455;53.376;-6.262;2023-01-08T09:42:53;98024.38;;;4.00;100.00
28167;BME280;15455;53.376;-6.262;2023-01-08T09:45:39;98033.13;;;3.94;100.00
28167;BME280;15455;53.376;-6.262;2023-01-08T09:48:27;98026.38;;;3.87;100.00
28167;BME280;15455;53.376;-6.262;2023-01-08T09:51:18;98027.28;;;3.85;100.00
28167;BME280;15455;53.376;-6.262;2023-01-08T09:54:05;98032.53;;;3.80;100.00
28167;BME280;15455;53.376;-6.262;2023-01-08T09:56:54;98037.72;;;3.77;100.00
28167;BME280;15455;53.376;-6.262;2023-01-08T09:59:40;98032.63;;;3.74;100.00
28167;BME280;15455;53.376;-6.262;2023-01-08T10:02:27;98038.63;;;3.76;100.00
28167;BME280;15455;53.376;-6.262;2023-01-08T10:05:16;98030.09;;;3.71;100.00
28167;BME280;15455;53.376;-6.262;2023-01-08T10:08:03;98030.97;;;3.70;100.00
28167;BME280;15455;53.376;-6.262;2023-01-08T10:10:49;98034.34;;;3.75;100.00
28167;BME280;15455;53.376;-6.262;2023-01-08T10:13:37;98043.78;;;3.76;100.00
28167;BME280;15455;53.376;-6.262;2023-01-08T10:19:11;98022.09;;;3.86;100.00
28167;BME280;15455;53.376;-6.262;2023-01-08T10:21:57;98017.59;;;3.96;100.00
28167;BME280;15455;53.376;-6.262;2023-01-08T10:24:43;98013.97;;;4.05;100.00
28167;BME280;15455;53.376;-6.262;2023-01-08T10:27:28;98015.47;;;4.16;100.00
28167;BME280;15455;53.376;-6.262;2023-01-08T10:30:16;98022.19;;;4.24;100.00
28167;BME280;15455;53.376;-6.262;2023-01-08T10:33:17;98014.34;;;4.28;100.00
28167;BME280;15455;53.376;-6.262;2023-01-08T10:36:07;98011.66;;;4.33;100.00
28167;BME280;15455;53.376;-6.262;2023-01-08T10:39:02;98014.19;;;4.34;100.00
28167;BME280;15455;53.376;-6.262;2023-01-08T10:41:49;98000.50;;;4.32;100.00
28167;BME280;15455;53.376;-6.262;2023-01-08T10:44:38;98003.00;;;4.35;100.00
28167;BME280;15455;53.376;-6.262;2023-01-08T10:47:24;97990.09;;;4.35;100.00
28167;BME280;15455;53.376;-6.262;2023-01-08T10:50:20;98000.28;;;4.42;100.00
28167;BME280;15455;53.376;-6.262;2023-01-08T10:53:24;98004.41;;;4.49;100.00
28167;BME280;15455;53.376;-6.262;2023-01-08T10:56:24;98003.31;;;4.59;100.00
28167;BME280;15455;53.376;-6.262;2023-01-08T10:59:20;98004.09;;;4.64;100.00
28167;BME280;15455;53.376;-6.262;2023-01-08T11:05:17;97999.56;;;4.74;100.00
28167;BME280;15455;53.376;-6.262;2023-01-08T11:08:12;98002.03;;;4.79;100.00
28167;BME280;15455;53.376;-6.262;2023-01-08T11:11:00;97999.41;;;4.80;100.00
28167;BME280;15455;53.376;-6.262;2023-01-08T11:13:56;97994.06;;;4.88;100.00
28167;BME280;15455;53.376;-6.262;2023-01-08T11:16:42;98002.53;;;4.95;100.00
28167;BME280;15455;53.376;-6.262;2023-01-08T11:19:32;97997.22;;;4.99;100.00
28167;BME280;15455;53.376;-6.262;2023-01-08T11:22:27;97985.81;;;5.08;100.00
28167;BME280;15455;53.376;-6.262;2023-01-08T11:25:21;97989.94;;;5.15;100.00
28167;BME280;15455;53.376;-6.262;2023-01-08T11:28:14;97990.53;;;5.27;100.00
28167;BME280;15455;53.376;-6.262;2023-01-08T11:31:18;97985.09;;;5.37;100.00
28167;BME280;15455;53.376;-6.262;2023-01-08T11:34:15;97984.09;;;5.43;100.00
28167;BME280;15455;53.376;-6.262;2023-01-08T11:37:11;97977.91;;;5.47;100.00
28167;BME280;15455;53.376;-6.262;2023-01-08T11:39:58;97977.03;;;5.48;100.00
28167;BME280;15455;53.376;-6.262;2023-01-08T11:51:41;97960.78;;;5.74;100.00
28167;BME280;15455;53.376;-6.262;2023-01-08T11:57:47;97960.97;;;5.68;100.00
28167;BME280;15455;53.376;-6.262;2023-01-08T12:22:26;97944.94;;;5.55;100.00
28167;BME280;15455;53.376;-6.262;2023-01-08T12:34:12;97932.03;;;5.54;100.00
28167;BME280;15455;53.376;-6.262;2023-01-08T12:37:13;97925.13;;;5.54;100.00
28167;BME280;15455;53.376;-6.262;2023-01-08T12:46:35;97936.34;;;5.55;100.00
28167;BME280;15455;53.376;-6.262;2023-01-08T12:49:25;97922.53;;;5.54;100.00
28167;BME280;15455;53.376;-6.262;2023-01-08T12:52:18;97924.25;;;5.55;100.00
28167;BME280;15455;53.376;-6.262;2023-01-08T13:01:29;97930.66;;;5.73;100.00
28167;BME280;15455;53.376;-6.262;2023-01-08T13:04:18;97936.56;;;5.77;100.00
28167;BME280;15455;53.376;-6.262;2023-01-08T13:07:04;97938.19;;;5.81;100.00
28167;BME280;15455;53.376;-6.262;2023-01-08T13:10:00;97930.38;;;5.83;100.00
28167;BME280;15455;53.376;-6.262;2023-01-08T13:12:50;97928.53;;;5.88;100.00
28167;BME280;15455;53.376;-6.262;2023-01-08T13:15:37;97917.09;;;5.94;100.00
28167;BME280;15455;53.376;-6.262;2023-01-08T13:18:23;97913.47;;;6.01;100.00
28167;BME280;15455;53.376;-6.262;2023-01-08T13:21:10;97904.00;;;6.01;100.00
28167;BME280;15455;53.376;-6.262;2023-01-08T13:24:50;97905.56;;;6.07;100.00
28167;BME280;15455;53.376;-6.262;2023-01-08T13:29:59;97887.09;;;6.18;100.00
28167;BME280;15455;53.376;-6.262;2023-01-08T13:32:46;97901.38;;;6.30;100.00
28167;BME280;15455;53.376;-6.262;2023-01-08T13:35:33;97899.25;;;6.42;100.00
28167;BME280;15455;53.376;-6.262;2023-01-08T13:38:20;97894.59;;;6.54;100.00
28167;BME280;15455;53.376;-6.262;2023-01-08T13:41:43;97890.16;;;6.57;100.00
28167;BME280;15455;53.376;-6.262;2023-01-08T13:44:33;97901.31;;;6.59;100.00
28167;BME280;15455;53.376;-6.262;2023-01-08T13:47:33;97895.41;;;6.56;100.00
28167;BME280;15455;53.376;-6.262;2023-01-08T13:50:22;97899.50;;;6.63;100.00
28167;BME280;15455;53.376;-6.262;2023-01-08T13:53:11;97886.53;;;6.63;100.00
28167;BME280;15455;53.376;-6.262;2023-01-08T13:56:04;97887.22;;;6.68;100.00
28167;BME280;15455;53.376;-6.262;2023-01-08T13:58:52;97886.22;;;6.72;100.00
28167;BME280;15455;53.376;-6.262;2023-01-08T14:01:38;97881.75;;;6.77;100.00
28167;BME280;15455;53.376;-6.262;2023-01-08T14:04:23;97881.69;;;6.79;100.00
28167;BME280;15455;53.376;-6.262;2023-01-08T14:07:12;97882.56;;;6.78;100.00
28167;BME280;15455;53.376;-6.262;2023-01-08T14:10:06;97886.16;;;6.74;100.00
28167;BME280;15455;53.376;-6.262;2023-01-08T14:12:55;97877.84;;;6.64;100.00
28167;BME280;15455;53.376;-6.262;2023-01-08T14:15:46;97883.06;;;6.63;100.00
28167;BME280;15455;53.376;-6.262;2023-01-08T14:18:32;97885.50;;;6.67;100.00
28167;BME280;15455;53.376;-6.262;2023-01-08T14:21:21;97877.59;;;6.72;100.00
28167;BME280;15455;53.376;-6.262;2023-01-08T14:24:14;97877.34;;;6.80;100.00
28167;BME280;15455;53.376;-6.262;2023-01-08T14:27:00;97875.50;;;6.83;100.00
28167;BME280;15455;53.376;-6.262;2023-01-08T14:29:46;97869.28;;;6.87;100.00
28167;BME280;15455;53.376;-6.262;2023-01-08T14:32:31;97872.31;;;7.00;100.00
28167;BME280;15455;53.376;-6.262;2023-01-08T14:35:22;97867.78;;;7.07;100.00
28167;BME280;15455;53.376;-6.262;2023-01-08T14:38:12;97866.84;;;7.09;100.00
28167;BME280;15455;53.376;-6.262;2023-01-08T14:41:11;97878.94;;;7.09;100.00
28167;BME280;15455;53.376;-6.262;2023-01-08T14:43:57;97874.75;;;7.05;100.00
28167;BME280;15455;53.376;-6.262;2023-01-08T14:46:43;97888.69;;;7.02;100.00
28167;BME280;15455;53.376;-6.262;2023-01-08T14:49:32;97879.25;;;7.00;100.00
28167;BME280;15455;53.376;-6.262;2023-01-08T14:52:19;97883.69;;;6.96;100.00
28167;BME280;15455;53.376;-6.262;2023-01-08T14:55:05;97895.28;;;6.86;100.00
28167;BME280;15455;53.376;-6.262;2023-01-08T14:57:53;97884.97;;;6.84;100.00
28167;BME280;15455;53.376;-6.262;2023-01-08T15:00:40;97903.09;;;6.84;100.00
28167;BME280;15455;53.376;-6.262;2023-01-08T15:03:27;97902.25;;;6.84;100.00
28167;BME280;15455;53.376;-6.262;2023-01-08T15:09:32;97911.34;;;6.70;100.00
28167;BME280;15455;53.376;-6.262;2023-01-08T15:12:24;97920.94;;;6.67;100.00
28167;BME280;15455;53.376;-6.262;2023-01-08T15:15:22;97927.13;;;6.63;100.00
28167;BME280;15455;53.376;-6.262;2023-01-08T15:18:10;97923.09;;;6.54;100.00
28167;BME280;15455;53.376;-6.262;2023-01-08T15:20:57;97924.13;;;6.48;100.00
28167;BME280;15455;53.376;-6.262;2023-01-08T15:23:46;97928.47;;;6.48;100.00
28167;BME280;15455;53.376;-6.262;2023-01-08T15:26:33;97918.16;;;6.46;100.00
28167;BME280;15455;53.376;-6.262;2023-01-08T15:29:23;97929.50;;;6.42;100.00
28167;BME280;15455;53.376;-6.262;2023-01-08T15:34:59;97938.66;;;6.25;100.00
28167;BME280;15455;53.376;-6.262;2023-01-08T15:37:45;97942.34;;;6.18;100.00
28167;BME280;15455;53.376;-6.262;2023-01-08T15:40:31;97930.50;;;6.10;100.00
28167;BME280;15455;53.376;-6.262;2023-01-08T15:43:17;97948.00;;;6.01;100.00
28167;BME280;15455;53.376;-6.262;2023-01-08T15:46:03;97951.59;;;5.96;100.00
28167;BME280;15455;53.376;-6.262;2023-01-08T15:48:49;97955.28;;;5.87;100.00
28167;BME280;15455;53.376;-6.262;2023-01-08T15:51:36;97956.34;;;5.80;100.00
28167;BME280;15455;53.376;-6.262;2023-01-08T15:54:25;97950.63;;;5.68;100.00